Time;durP1;ratioP1;P1;durP2;ratioP2;P2;SDS_P1;SDS_P2;PMS_P1;PMS_P2;Temp;Humidity;BMP_temperature;BMP_pressure;BME280_temperature;BME280_humidity;BME280_pressure;Samples;Min_cycle;Max_cycle;Signal;HPM_P1;HPM_P2
2023/04/14 07:35:42;;;;;;;10.15;1.55;;;9.50;99.90;;;;;;5122115;27;1976309;-79
2023/04/14 07:38:07;;;;;;;15.57;2.03;;;10.00;99.90;;;;;;5152074;27;20042;-80
2023/04/14 07:40:33;;;;;;;6.60;1.23;;;10.30;99.90;;;;;;5134368;27;20038;-79
2023/04/14 07:42:59;;;;;;;9.55;1.63;;;9.80;99.90;;;;;;5152198;27;20038;-78
2023/04/14 07:45:24;;;;;;;8.95;1.30;;;10.00;99.90;;;;;;5116478;27;20046;-78
2023/04/14 07:47:51;;;;;;;12.70;1.95;;;10.10;99.90;;;;;;5152352;27;20090;-78
2023/04/14 07:50:17;;;;;;;11.95;2.10;;;10.10;99.90;;;;;;5128330;27;20061;-78
2023/04/14 07:52:43;;;;;;;12.90;2.08;;;11.20;99.90;;;;;;5131101;27;20047;-77
2023/04/14 07:55:08;;;;;;;7.45;1.90;;;10.30;99.90;;;;;;5096689;27;20039;-78
2023/04/14 07:57:34;;;;;;;8.45;1.40;;;10.40;99.90;;;;;;5130527;27;20067;-79
2023/04/14 08:00:01;;;;;;;15.13;1.52;;;10.50;99.90;;;;;;5131086;27;20073;-78
2023/04/14 08:02:26;;;;;;;9.88;1.95;;;10.60;99.90;;;;;;5130157;27;20043;-79
2023/04/14 08:04:52;;;;;;;6.60;1.42;;;10.70;99.90;;;;;;5131238;27;20123;-78
2023/04/14 08:07:18;;;;;;;7.47;1.30;;;11.10;99.90;;;;;;5096052;27;20047;-77
2023/04/14 08:09:44;;;;;;;15.75;2.13;;;11.00;99.90;;;;;;5114197;27;20043;-77
2023/04/14 08:12:10;;;;;;;14.18;1.98;;;11.50;99.90;;;;;;5113466;27;20049;-77
2023/04/14 08:14:36;;;;;;;6.75;1.20;;;11.30;99.90;;;;;;5130352;27;20051;-77
2023/04/14 08:17:01;;;;;;;19.98;2.00;;;11.40;99.90;;;;;;5130748;27;20494;-77
2023/04/14 08:19:27;;;;;;;17.15;2.53;;;11.50;99.90;;;;;;5129673;27;20050;-78
2023/04/14 08:21:53;;;;;;;10.07;1.77;;;11.60;99.90;;;;;;5113678;27;20118;-77
2023/04/14 08:24:19;;;;;;;13.93;2.42;;;11.70;99.90;;;;;;5095695;27;20039;-81
2023/04/14 08:26:45;;;;;;;8.95;1.85;;;11.80;99.90;;;;;;5113879;27;20152;-81
2023/04/14 08:29:11;;;;;;;6.50;1.25;;;11.90;99.90;;;;;;5112702;27;20042;-81
2023/04/14 08:31:36;;;;;;;6.53;1.55;;;11.90;99.90;;;;;;5130379;27;20130;-81
2023/04/14 08:34:02;;;;;;;10.00;2.20;;;12.20;99.90;;;;;;5109966;28;20112;-81
2023/04/14 08:36:28;;;;;;;11.95;1.98;;;12.20;99.90;;;;;;5125217;28;20534;-81
2023/04/14 08:38:54;;;;;;;11.32;1.60;;;12.30;99.90;;;;;;5125933;28;20650;-81
2023/04/14 08:41:21;;;;;;;8.07;1.27;;;12.40;99.90;;;;;;5124594;28;20126;-81
2023/04/14 08:43:46;;;;;;;6.53;1.50;;;12.50;99.90;;;;;;5092401;28;20039;-80
2023/04/14 08:46:14;;;;;;;10.05;1.60;;;12.60;99.90;;;;;;5115421;28;20389;-80
2023/04/14 08:48:40;;;;;;;11.20;1.60;;;12.70;99.90;;;;;;5112652;28;20075;-81
2023/04/14 08:51:09;;;;;;;13.45;2.58;;;12.80;99.90;;;;;;5094663;28;20040;-81
2023/04/14 08:53:42;;;;;;;12.57;2.50;;;12.90;99.90;;;;;;5110897;28;20047;-79
2023/04/14 08:56:15;;;;;;;10.55;1.50;;;13.00;99.90;;;;;;5112371;28;20044;-77
2023/04/14 08:58:41;;;;;;;12.85;2.08;;;13.10;99.90;;;;;;5110692;28;20081;-79
2023/04/14 09:01:08;;;;;;;10.05;1.73;;;13.20;99.90;;;;;;5111607;28;20048;-79
2023/04/14 09:03:35;;;;;;;11.00;1.52;;;13.30;99.90;;;;;;5110756;28;20134;-78
2023/04/14 09:06:01;;;;;;;10.07;1.50;;;13.30;99.90;;;;;;5111178;28;20054;-79
2023/04/14 09:08:32;;;;;;;9.70;1.75;;;13.30;99.90;;;;;;5111454;28;20048;-79
2023/04/14 09:11:02;;;;;;;7.32;1.90;;;13.30;99.90;;;;;;5093748;28;20146;-79
2023/04/14 09:13:28;;;;;;;8.10;1.73;;;13.30;99.90;;;;;;5111856;28;20043;-79
2023/04/14 09:15:54;;;;;;;12.05;2.08;;;13.30;99.90;;;;;;5092880;28;20043;-79
2023/04/14 09:18:21;;;;;;;9.63;1.50;;;13.30;99.90;;;;;;5111805;28;20036;-79
2023/04/14 09:20:47;;;;;;;11.63;2.42;;;13.40;99.90;;;;;;5110483;28;20044;-81
2023/04/14 09:23:13;;;;;;;7.25;1.88;;;13.50;99.90;;;;;;5110670;28;20048;-78
2023/04/14 09:25:40;;;;;;;11.13;2.10;;;13.50;99.90;;;;;;5094300;28;20123;-78
2023/04/14 09:28:07;;;;;;;8.57;2.03;;;13.60;99.90;;;;;;5109753;28;20466;-78
2023/04/14 09:30:33;;;;;;;10.48;1.40;;;13.80;99.90;;;;;;5111216;28;20048;-78
2023/04/14 09:33:03;;;;;;;8.20;1.52;;;13.90;99.90;;;;;;5092871;28;20052;-78
2023/04/14 09:35:47;;;;;;;9.93;1.40;;;13.90;99.90;;;;;;5094424;28;20086;-79
2023/04/14 09:38:13;;;;;;;8.05;1.50;;;14.00;99.90;;;;;;5110768;28;20086;-78
2023/04/14 09:40:42;;;;;;;18.35;2.05;;;14.20;99.90;;;;;;5109825;28;20551;-78
2023/04/14 09:43:21;;;;;;;9.63;1.77;;;14.30;99.90;;;;;;5094050;28;20618;-78
2023/04/14 09:45:47;;;;;;;13.35;1.70;;;14.50;99.90;;;;;;5111116;28;20048;-78
2023/04/14 09:48:13;;;;;;;10.40;1.63;;;14.50;99.90;;;;;;5094485;28;20062;-78
2023/04/14 09:51:08;;;;;;;10.15;1.75;;;14.70;99.90;;;;;;5109724;28;20436;-78
2023/04/14 09:53:35;;;;;;;6.60;1.92;;;14.90;99.90;;;;;;5085475;28;20062;-79
2023/04/14 09:56:04;;;;;;;7.25;1.63;;;14.80;99.90;;;;;;5093802;28;20431;-79
2023/04/14 09:58:36;;;;;;;13.40;1.98;;;14.70;99.90;;;;;;5108479;28;20214;-80
2023/04/14 10:01:12;;;;;;;11.67;1.70;;;14.80;99.90;;;;;;5093724;28;20521;-80
2023/04/14 10:03:40;;;;;;;6.57;1.65;;;14.80;99.90;;;;;;5092840;28;20126;-80
2023/04/14 10:06:25;;;;;;;11.95;1.95;;;14.80;99.90;;;;;;5110108;28;20044;-79
2023/04/14 10:08:52;;;;;;;7.57;1.70;;;15.00;99.90;;;;;;5093728;28;20039;-79
2023/04/14 10:11:20;;;;;;;10.95;1.42;;;15.10;99.90;;;;;;5092135;28;20179;-78
2023/04/14 10:13:57;;;;;;;7.65;1.42;;;15.20;99.90;;;;;;5110201;28;20035;-78
2023/04/14 10:16:24;;;;;;;5.75;1.67;;;15.10;99.90;;;;;;5109688;28;20048;-77
2023/04/14 10:18:52;;;;;;;6.55;1.63;;;14.90;99.90;;;;;;5109359;28;20051;-77
2023/04/14 10:21:20;;;;;;;12.18;2.03;;;15.00;99.90;;;;;;5110365;28;20180;-77
2023/04/14 10:23:46;;;;;;;7.55;1.60;;;15.10;99.90;;;;;;5109087;28;20623;-77
2023/04/14 10:26:13;;;;;;;10.93;1.50;;;15.30;99.90;;;;;;5110044;28;20075;-78
2023/04/14 10:28:47;;;;;;;6.25;1.55;;;15.40;99.90;;;;;;5091989;28;20035;-78
2023/04/14 10:31:26;;;;;;;11.93;1.85;;;15.50;99.90;;;;;;5092812;28;20086;-78
2023/04/14 10:33:52;;;;;;;9.65;2.35;;;15.50;99.50;;;;;;5112685;27;20062;-77
2023/04/14 10:36:26;;;;;;;7.78;1.52;;;15.30;99.80;;;;;;5076922;27;20402;-77
2023/04/14 10:39:00;;;;;;;10.23;1.50;;;15.10;99.50;;;;;;5112204;27;20134;-77
2023/04/14 10:41:26;;;;;;;11.20;2.15;;;15.00;98.00;;;;;;5109875;27;20082;-77
2023/04/14 10:43:52;;;;;;;8.63;1.70;;;15.00;99.80;;;;;;5130398;27;20075;-77
2023/04/14 10:46:18;;;;;;;6.22;1.65;;;15.20;99.90;;;;;;5093660;27;20039;-77
2023/04/14 10:48:47;;;;;;;11.10;1.92;;;15.20;99.70;;;;;;5130133;27;20047;-78
2023/04/14 10:51:16;;;;;;;16.75;2.20;;;15.30;99.50;;;;;;5111806;27;20050;-77
2023/04/14 10:53:48;;;;;;;17.80;2.03;;;15.40;99.60;;;;;;5128738;27;20111;-78
2023/04/14 10:56:14;;;;;;;7.32;1.30;;;15.60;99.30;;;;;;5111871;27;20163;-77
2023/04/14 10:58:52;;;;;;;11.02;1.73;;;15.80;99.50;;;;;;5109534;27;20598;-77
2023/04/14 11:01:30;;;;;;;15.80;2.03;;;15.90;99.30;;;;;;5096643;27;20079;-79
2023/04/14 11:03:57;;;;;;;11.43;1.77;;;16.10;99.50;;;;;;5094150;27;20104;-79
2023/04/14 11:06:45;;;;;;;19.15;2.30;;;16.20;98.90;;;;;;5109970;28;20478;-79
2023/04/14 11:09:30;;;;;;;10.57;1.73;;;16.40;96.80;;;;;;5111724;27;20118;-79
2023/04/14 11:12:05;;;;;;;7.43;1.98;;;16.30;96.70;;;;;;5128594;27;20368;-78
2023/04/14 11:14:33;;;;;;;8.57;1.40;;;16.30;97.00;;;;;;5129620;27;20046;-78
2023/04/14 11:17:01;;;;;;;7.50;1.77;;;16.30;97.00;;;;;;5094101;27;20086;-78
2023/04/14 11:19:28;;;;;;;8.13;1.63;;;16.40;96.70;;;;;;5109685;27;20414;-80
2023/04/14 11:21:54;;;;;;;9.75;2.03;;;16.20;95.80;;;;;;5111369;27;20648;-82
2023/04/14 11:24:24;;;;;;;12.88;2.47;;;16.30;95.60;;;;;;5092846;27;20096;-81
2023/04/14 11:26:54;;;;;;;11.45;2.17;;;16.30;95.00;;;;;;5094144;27;20043;-80
2023/04/14 11:29:21;;;;;;;5.35;1.80;;;16.30;95.00;;;;;;5076399;28;20142;-80
2023/04/14 11:32:03;;;;;;;9.55;1.80;;;16.30;94.90;;;;;;5110056;28;20490;-81
2023/04/14 11:34:29;;;;;;;4.53;1.38;;;16.40;93.00;;;;;;5094297;28;20058;-79
2023/04/14 11:36:55;;;;;;;5.70;1.42;;;16.40;93.70;;;;;;5109425;28;20043;-79
2023/04/14 11:39:22;;;;;;;5.22;1.23;;;16.60;93.40;;;;;;5111569;28;20039;-79
2023/04/14 11:41:49;;;;;;;8.27;2.03;;;16.60;92.40;;;;;;5093202;28;20047;-77
2023/04/14 11:44:19;;;;;;;7.15;1.58;;;16.70;92.50;;;;;;5129138;28;20045;-79
2023/04/14 11:46:45;;;;;;;6.50;1.95;;;16.80;92.40;;;;;;5111571;28;20035;-77
2023/04/14 11:49:11;;;;;;;8.20;2.50;;;16.90;92.50;;;;;;5092393;28;20047;-75
2023/04/14 11:51:37;;;;;;;6.50;2.00;;;17.00;92.20;;;;;;5111101;28;20446;-78
2023/04/14 11:54:04;;;;;;;10.20;1.98;;;17.20;91.80;;;;;;5127741;28;20130;-77
2023/04/14 11:56:30;;;;;;;12.50;2.10;;;17.30;92.00;;;;;;5111429;28;20412;-78
2023/04/14 11:59:14;;;;;;;8.38;1.90;;;17.40;92.00;;;;;;5109452;28;20043;-78
2023/04/14 12:01:40;;;;;;;12.15;2.40;;;17.50;88.50;;;;;;5110540;28;20451;-78
2023/04/14 12:04:06;;;;;;;10.63;2.42;;;17.50;90.10;;;;;;5111055;28;20086;-78
2023/04/14 12:06:35;;;;;;;8.10;2.22;;;17.40;89.40;;;;;;5110047;28;20086;-78
2023/04/14 12:09:02;;;;;;;5.88;1.63;;;17.30;88.90;;;;;;5111047;28;20513;-78
2023/04/14 12:11:28;;;;;;;9.93;2.03;;;17.20;89.30;;;;;;5092365;28;20047;-78
2023/04/14 12:13:55;;;;;;;8.90;2.10;;;16.90;87.80;;;;;;5094488;28;20039;-78
2023/04/14 12:16:22;;;;;;;5.97;1.60;;;16.70;87.50;;;;;;5109906;28;20047;-76
2023/04/14 12:18:47;;;;;;;11.30;1.60;;;16.70;88.60;;;;;;5093412;28;20047;-77
2023/04/14 12:21:18;;;;;;;6.22;1.83;;;16.70;88.20;;;;;;5095687;27;20103;-77
2023/04/14 12:23:47;;;;;;;4.60;1.50;;;16.60;86.70;;;;;;5113339;27;20394;-77
2023/04/14 12:26:13;;;;;;;5.32;1.30;;;16.60;86.80;;;;;;5133616;27;20042;-77
2023/04/14 12:28:40;;;;;;;7.05;1.33;;;16.30;84.70;;;;;;5112685;27;20043;-77
2023/04/14 12:31:06;;;;;;;8.43;2.10;;;16.10;83.90;;;;;;5114093;27;20039;-77
2023/04/14 12:33:33;;;;;;;5.57;1.50;;;16.10;83.00;;;;;;5112984;27;20070;-77
2023/04/14 12:36:03;;;;;;;10.02;1.55;;;16.30;83.30;;;;;;5113329;27;20047;-76
2023/04/14 12:38:30;;;;;;;5.97;1.92;;;16.50;82.20;;;;;;5114688;27;20058;-77
2023/04/14 12:40:55;;;;;;;5.75;1.90;;;16.60;81.50;;;;;;5131026;27;20182;-76
2023/04/14 12:43:28;;;;;;;8.18;2.08;;;16.60;80.40;;;;;;5097752;27;20083;-76
2023/04/14 12:45:54;;;;;;;10.52;1.55;;;16.70;80.40;;;;;;5130865;27;20046;-76
2023/04/14 12:48:21;;;;;;;10.35;1.92;;;16.50;80.60;;;;;;5131931;27;20126;-76
2023/04/14 12:50:47;;;;;;;6.30;1.25;;;16.80;80.60;;;;;;5132115;27;20039;-76
2023/04/14 12:53:23;;;;;;;5.13;1.92;;;16.80;80.10;;;;;;5131331;27;20489;-77
2023/04/14 12:56:06;;;;;;;9.85;1.85;;;17.00;80.60;;;;;;5114304;27;20130;-76
2023/04/14 12:58:36;;;;;;;4.97;1.05;;;16.90;78.60;;;;;;5131011;27;20425;-77
2023/04/14 13:01:06;;;;;;;7.32;1.42;;;16.70;79.70;;;;;;5114362;27;20425;-78
2023/04/14 13:03:45;;;;;;;8.07;1.92;;;16.70;79.50;;;;;;5096431;27;20517;-77
2023/04/14 13:06:15;;;;;;;7.05;1.48;;;16.50;77.90;;;;;;5112682;27;20501;-77
2023/04/14 13:08:46;;;;;;;3.83;1.33;;;16.30;78.50;;;;;;5114441;27;20490;-77
2023/04/14 13:11:13;;;;;;;8.48;1.45;;;16.10;77.90;;;;;;5112206;27;20075;-78
2023/04/14 13:13:39;;;;;;;8.75;1.50;;;16.10;78.20;;;;;;5114413;27;20057;-78
2023/04/14 13:16:05;;;;;;;4.57;1.25;;;16.20;78.00;;;;;;5112118;27;20039;-76
2023/04/14 13:18:30;;;;;;;3.97;1.15;;;16.40;77.10;;;;;;5113331;27;20039;-78
2023/04/14 13:20:56;;;;;;;5.15;1.35;;;16.60;77.70;;;;;;5113205;27;20047;-76
2023/04/14 13:23:22;;;;;;;5.25;1.25;;;16.80;76.30;;;;;;5112119;27;20107;-77
2023/04/14 13:25:48;;;;;;;10.10;1.73;;;17.10;76.20;;;;;;5132225;27;20047;-77
2023/04/14 13:28:14;;;;;;;7.65;1.67;;;17.20;74.90;;;;;;5077800;27;20046;-77
2023/04/14 13:30:41;;;;;;;6.25;1.35;;;17.30;74.00;;;;;;5096953;27;20176;-77
2023/04/14 13:33:07;;;;;;;5.85;1.40;;;17.30;73.80;;;;;;5095176;27;20043;-77
2023/04/14 13:35:33;;;;;;;7.65;1.45;;;17.30;73.50;;;;;;5112080;27;20059;-76
2023/04/14 13:37:58;;;;;;;7.45;1.25;;;17.30;73.90;;;;;;5111355;27;20054;-76
2023/04/14 13:40:24;;;;;;;6.70;1.58;;;17.40;73.30;;;;;;5094293;27;20191;-77
2023/04/14 13:42:50;;;;;;;4.30;1.27;;;17.40;72.90;;;;;;5095043;27;20140;-77
2023/04/14 13:45:16;;;;;;;11.18;1.67;;;17.40;72.80;;;;;;5109601;27;20050;-77
2023/04/14 13:47:46;;;;;;;6.15;1.70;;;17.40;72.80;;;;;;5095429;27;20054;-77
2023/04/14 13:50:11;;;;;;;8.73;1.40;;;17.50;73.00;;;;;;5092764;27;20046;-77
2023/04/14 13:52:37;;;;;;;7.75;1.30;;;17.60;72.10;;;;;;5111907;27;20043;-77
2023/04/14 13:55:03;;;;;;;7.75;1.60;;;17.60;69.70;;;;;;5111025;27;20096;-77
2023/04/14 13:57:30;;;;;;;4.63;1.40;;;17.60;68.50;;;;;;5110658;27;20066;-77
2023/04/14 13:59:56;;;;;;;4.65;1.55;;;17.70;67.90;;;;;;5111876;27;20045;-77
2023/04/14 14:02:22;;;;;;;8.02;1.50;;;17.60;67.00;;;;;;5075762;27;20138;-77
2023/04/14 14:04:48;;;;;;;4.45;1.13;;;17.60;66.90;;;;;;5078198;27;20046;-77
2023/04/14 14:07:14;;;;;;;4.88;1.23;;;17.70;68.20;;;;;;5110008;27;20047;-77
2023/04/14 14:09:40;;;;;;;6.32;1.48;;;17.80;67.70;;;;;;5095103;27;20402;-77
2023/04/14 14:12:10;;;;;;;6.03;1.60;;;17.80;66.60;;;;;;5093483;27;20500;-77
2023/04/14 14:14:37;;;;;;;5.18;1.52;;;17.80;64.60;;;;;;5093264;27;20043;-77
2023/04/14 14:17:03;;;;;;;4.43;1.20;;;17.80;64.90;;;;;;5061561;27;20074;-77
2023/04/14 14:19:29;;;;;;;9.15;2.08;;;17.60;64.10;;;;;;5109068;27;20474;-77
2023/04/14 14:21:55;;;;;;;7.05;1.20;;;17.30;64.10;;;;;;5094856;27;20049;-77
2023/04/14 14:24:20;;;;;;;8.88;1.30;;;17.10;64.20;;;;;;5092799;27;20046;-77
2023/04/14 14:26:46;;;;;;;9.35;1.10;;;17.10;63.80;;;;;;5111388;27;20032;-77
2023/04/14 14:29:12;;;;;;;6.00;1.40;;;17.30;64.70;;;;;;5059993;27;20079;-77
2023/04/14 14:31:37;;;;;;;4.13;1.52;;;17.40;64.70;;;;;;5110233;27;20047;-77
2023/04/14 14:34:03;;;;;;;9.95;1.52;;;17.50;64.50;;;;;;5111225;27;20051;-77
2023/04/14 14:36:29;;;;;;;6.43;1.60;;;17.50;64.90;;;;;;5109111;27;20059;-78
2023/04/14 14:38:55;;;;;;;5.38;1.42;;;17.50;64.10;;;;;;5111387;27;20096;-78
2023/04/14 14:41:21;;;;;;;5.45;1.60;;;17.70;63.80;;;;;;5058246;27;20043;-77
2023/04/14 14:43:48;;;;;;;5.65;1.33;;;17.80;64.20;;;;;;5093748;27;20100;-77
2023/04/14 14:46:14;;;;;;;5.82;1.67;;;18.00;63.40;;;;;;5092594;27;20044;-77
2023/04/14 14:48:40;;;;;;;10.68;1.90;;;18.10;62.20;;;;;;5110324;27;20049;-78
2023/04/14 14:51:06;;;;;;;7.25;1.77;;;18.10;62.30;;;;;;5110684;27;20070;-77
2023/04/14 14:53:31;;;;;;;7.43;2.13;;;18.10;61.20;;;;;;5127772;27;20104;-77
2023/04/14 14:55:57;;;;;;;4.43;1.70;;;18.20;61.50;;;;;;5129738;27;20089;-77
2023/04/14 14:58:23;;;;;;;5.97;1.27;;;18.20;61.30;;;;;;5127095;27;20474;-78
2023/04/14 15:00:49;;;;;;;3.75;1.30;;;18.30;61.50;;;;;;5077058;27;20074;-78
2023/04/14 15:03:15;;;;;;;6.00;1.33;;;18.30;60.30;;;;;;5109082;27;20035;-78
2023/04/14 15:05:41;;;;;;;6.15;1.40;;;18.40;61.40;;;;;;5093474;27;20062;-78
2023/04/14 15:08:08;;;;;;;5.68;1.48;;;18.40;61.30;;;;;;5093739;27;20039;-82
2023/04/14 15:10:34;;;;;;;7.05;1.45;;;18.50;60.20;;;;;;5108977;27;20168;-77
2023/04/14 15:13:02;;;;;;;2.90;1.50;;;18.50;60.10;;;;;;5077153;27;20118;-77
2023/04/14 15:15:28;;;;;;;4.55;1.60;;;18.60;59.30;;;;;;5091453;27;20051;-77
2023/04/14 15:17:54;;;;;;;7.25;1.95;;;18.60;59.10;;;;;;5110451;27;20490;-77
2023/04/14 15:20:20;;;;;;;6.45;1.60;;;18.60;58.60;;;;;;5108682;27;20050;-77
2023/04/14 15:22:45;;;;;;;8.25;1.52;;;18.50;57.40;;;;;;5093445;27;20188;-77
2023/04/14 15:25:11;;;;;;;7.47;1.85;;;18.30;57.30;;;;;;5109998;27;20172;-77
2023/04/14 15:27:37;;;;;;;4.88;1.48;;;18.30;57.60;;;;;;5092133;28;20051;-78
2023/04/14 15:30:03;;;;;;;5.60;1.40;;;18.20;57.90;;;;;;5129028;27;20379;-77
2023/04/14 15:32:29;;;;;;;8.43;1.67;;;18.00;58.10;;;;;;5108077;28;20505;-78
2023/04/14 15:34:54;;;;;;;7.43;2.08;;;17.90;58.60;;;;;;5093314;28;20058;-79
2023/04/14 15:37:20;;;;;;;4.18;1.50;;;17.90;58.50;;;;;;5108166;28;20039;-80
2023/04/14 15:39:46;;;;;;;6.70;1.67;;;18.00;58.50;;;;;;5093430;28;20110;-79
2023/04/14 15:42:12;;;;;;;7.05;2.20;;;17.90;59.30;;;;;;5092633;28;20525;-79
2023/04/14 15:44:37;;;;;;;8.38;2.28;;;17.90;59.70;;;;;;5091668;28;20114;-79
2023/04/14 15:47:03;;;;;;;12.40;2.85;;;17.90;61.80;;;;;;5110435;28;20047;-80
2023/04/14 15:49:30;;;;;;;11.00;3.25;;;17.70;62.80;;;;;;5091009;28;20051;-80
2023/04/14 15:51:56;;;;;;;8.95;3.10;;;17.60;63.30;;;;;;5110267;28;20114;-79
2023/04/14 15:54:22;;;;;;;8.00;2.83;;;17.40;64.60;;;;;;5091341;27;20043;-80
2023/04/14 15:56:51;;;;;;;8.02;3.10;;;17.20;65.90;;;;;;5095909;27;20482;-79
2023/04/14 15:59:17;;;;;;;6.65;2.75;;;17.00;67.00;;;;;;5113184;27;20550;-81
2023/04/14 16:01:43;;;;;;;8.15;2.38;;;16.80;67.40;;;;;;5113034;27;20383;-80
2023/04/14 16:04:08;;;;;;;9.40;2.17;;;16.60;68.00;;;;;;5114026;27;20527;-80
2023/04/14 16:06:35;;;;;;;7.97;2.33;;;16.40;68.90;;;;;;5077723;27;20061;-81
2023/04/14 16:09:03;;;;;;;7.32;2.60;;;16.10;69.60;;;;;;5114053;27;20053;-80
2023/04/14 16:11:29;;;;;;;13.13;2.53;;;15.90;69.80;;;;;;5112214;27;20043;-80
2023/04/14 16:13:55;;;;;;;5.25;2.08;;;15.80;70.20;;;;;;5113771;27;20043;-81
2023/04/14 16:16:22;;;;;;;9.82;2.15;;;15.70;70.60;;;;;;5113128;27;20086;-80
2023/04/14 16:18:48;;;;;;;11.20;2.17;;;15.60;71.10;;;;;;5095739;27;20047;-80
2023/04/14 16:21:14;;;;;;;7.38;2.00;;;15.60;72.10;;;;;;5132289;27;20035;-80
2023/04/14 16:23:40;;;;;;;5.25;1.30;;;15.50;72.80;;;;;;5111502;27;20047;-80
2023/04/14 16:26:06;;;;;;;6.25;1.70;;;15.50;73.40;;;;;;5132537;27;20055;-80
2023/04/14 16:28:33;;;;;;;7.95;2.22;;;15.40;74.00;;;;;;5111359;27;20087;-80
2023/04/14 16:31:00;;;;;;;4.97;1.60;;;15.40;74.70;;;;;;5113389;27;20066;-80
2023/04/14 16:33:26;;;;;;;10.13;2.58;;;15.30;74.90;;;;;;5095809;27;20516;-80
2023/04/14 16:35:55;;;;;;;9.27;2.05;;;15.30;75.00;;;;;;5094805;27;20502;-79
2023/04/14 16:38:21;;;;;;;5.47;2.30;;;15.20;75.40;;;;;;5113759;27;20474;-80
2023/04/14 16:40:57;;;;;;;8.60;2.20;;;14.40;75.60;;;;;;5111530;27;20047;-81
2023/04/14 16:43:24;;;;;;;5.72;2.40;;;14.90;76.80;;;;;;5113498;27;20054;-79
2023/04/14 16:45:50;;;;;;;6.35;2.78;;;14.80;76.70;;;;;;5094870;27;20083;-78
2023/04/14 16:48:16;;;;;;;6.70;2.55;;;14.60;76.80;;;;;;5113992;27;20043;-79
2023/04/14 16:50:45;;;;;;;6.60;2.10;;;14.40;77.80;;;;;;5095507;27;20126;-80
2023/04/14 16:53:12;;;;;;;6.50;2.28;;;14.30;78.10;;;;;;5112036;27;20130;-79
2023/04/14 16:55:38;;;;;;;11.57;2.30;;;14.10;77.90;;;;;;5113186;27;20050;-79
2023/04/14 16:58:04;;;;;;;7.78;2.50;;;14.00;78.90;;;;;;5110729;27;20043;-79
2023/04/14 17:00:30;;;;;;;7.38;2.42;;;13.90;79.70;;;;;;5113300;27;20103;-80
2023/04/14 17:02:56;;;;;;;9.02;2.10;;;13.80;80.50;;;;;;5111113;27;20142;-80
2023/04/14 17:05:21;;;;;;;12.32;2.72;;;13.70;81.40;;;;;;5112601;27;20068;-80
2023/04/14 17:07:48;;;;;;;8.45;2.90;;;13.70;81.40;;;;;;5111898;27;20044;-80
2023/04/14 17:10:13;;;;;;;9.50;3.17;;;13.50;82.00;;;;;;5094343;27;20047;-78
2023/04/14 17:12:41;;;;;;;6.50;2.63;;;13.50;83.40;;;;;;5112665;27;20035;-79
2023/04/14 17:15:08;;;;;;;11.35;2.65;;;13.40;85.10;;;;;;5093530;27;20065;-79
2023/04/14 17:17:35;;;;;;;9.82;2.85;;;13.40;86.10;;;;;;5131468;27;20096;-79
2023/04/14 17:20:05;;;;;;;10.32;3.05;;;13.40;87.50;;;;;;5093766;27;20107;-79
2023/04/14 17:22:32;;;;;;;9.70;3.10;;;13.30;88.50;;;;;;5079178;27;20046;-79
2023/04/14 17:24:59;;;;;;;11.32;3.35;;;13.30;89.90;;;;;;5112056;27;20050;-78
2023/04/14 17:27:25;;;;;;;7.55;3.25;;;13.30;90.30;;;;;;5111341;27;20065;-79
2023/04/14 17:29:50;;;;;;;6.82;2.40;;;13.30;90.40;;;;;;5112571;27;20103;-78
2023/04/14 17:32:17;;;;;;;24.52;11.57;;;13.20;90.90;;;;;;5110327;27;20043;-78
2023/04/14 17:34:44;;;;;;;14.13;5.40;;;13.20;91.40;;;;;;5095040;27;20065;-80
2023/04/14 17:37:10;;;;;;;10.98;3.75;;;13.10;91.60;;;;;;5110566;27;20493;-79
2023/04/14 17:39:36;;;;;;;5.80;2.65;;;13.10;92.10;;;;;;5112103;27;20130;-79
2023/04/14 17:42:02;;;;;;;7.63;2.78;;;13.00;92.80;;;;;;5111456;27;20317;-79
2023/04/14 17:44:33;;;;;;;7.88;2.53;;;13.00;93.30;;;;;;5128647;27;20043;-79
2023/04/14 17:47:10;;;;;;;9.43;3.03;;;13.00;93.60;;;;;;5112366;27;20051;-79
2023/04/14 17:49:36;;;;;;;12.43;3.30;;;12.90;94.10;;;;;;5109956;27;20043;-79
2023/04/14 17:52:01;;;;;;;15.90;3.47;;;12.90;94.90;;;;;;5112410;27;20359;-79
2023/04/14 17:54:28;;;;;;;10.95;2.92;;;12.80;95.00;;;;;;5093303;27;20043;-79
2023/04/14 17:56:55;;;;;;;37.33;19.05;;;12.80;95.60;;;;;;5111787;27;20043;-79
2023/04/14 17:59:21;;;;;;;65.07;33.00;;;12.70;95.70;;;;;;5094241;27;20058;-79
2023/04/14 18:01:47;;;;;;;18.33;9.30;;;12.70;96.30;;;;;;5093314;27;20055;-79
2023/04/14 18:04:13;;;;;;;11.43;4.80;;;12.60;96.80;;;;;;5111490;27;20112;-79
2023/04/14 18:06:39;;;;;;;8.00;3.35;;;12.50;97.10;;;;;;5075482;27;20085;-79
2023/04/14 18:09:05;;;;;;;6.28;3.38;;;12.50;97.20;;;;;;5111494;27;20043;-79
2023/04/14 18:11:30;;;;;;;8.45;3.20;;;12.40;97.40;;;;;;5109796;27;20130;-80
2023/04/14 18:13:57;;;;;;;7.60;3.47;;;12.30;97.80;;;;;;5111109;27;20047;-79
2023/04/14 18:16:22;;;;;;;8.02;3.05;;;12.20;98.20;;;;;;5093579;27;20089;-79
2023/04/14 18:18:49;;;;;;;9.98;3.42;;;12.10;98.70;;;;;;5109567;27;20105;-79
2023/04/14 18:21:15;;;;;;;15.43;4.88;;;12.00;99.10;;;;;;5094762;27;20416;-79
2023/04/14 18:23:41;;;;;;;10.20;3.38;;;12.00;99.70;;;;;;5109792;27;20050;-80
2023/04/14 18:26:07;;;;;;;7.25;3.05;;;11.80;99.90;;;;;;5111795;27;20071;-79
2023/04/14 18:28:33;;;;;;;22.98;11.27;;;11.80;99.90;;;;;;5075409;27;20538;-79
2023/04/14 18:30:59;;;;;;;11.38;4.35;;;11.70;99.90;;;;;;5110807;27;20088;-79
2023/04/14 18:33:26;;;;;;;6.18;3.80;;;11.60;99.90;;;;;;5109956;27;20087;-79
2023/04/14 18:35:54;;;;;;;9.35;4.35;;;11.60;99.90;;;;;;5109517;27;20047;-79
2023/04/14 18:38:20;;;;;;;9.18;3.72;;;12.00;99.90;;;;;;5110980;27;20540;-79
2023/04/14 18:40:47;;;;;;;6.97;3.70;;;11.50;99.90;;;;;;5108703;27;20046;-80
2023/04/14 18:43:14;;;;;;;8.10;4.40;;;11.40;99.90;;;;;;5110855;27;20172;-79
2023/04/14 18:45:47;;;;;;;8.40;2.72;;;11.40;99.90;;;;;;5091712;27;20382;-80
2023/04/14 18:48:16;;;;;;;10.93;3.58;;;11.40;99.90;;;;;;5110751;27;20043;-79
2023/04/14 18:50:42;;;;;;;6.03;2.67;;;11.40;99.90;;;;;;5093592;27;20067;-79
2023/04/14 18:53:09;;;;;;;7.18;2.88;;;11.30;99.90;;;;;;5109254;27;20043;-79
2023/04/14 18:55:35;;;;;;;7.00;2.72;;;11.30;99.90;;;;;;5076755;27;20100;-79
2023/04/14 18:58:02;;;;;;;9.20;3.72;;;11.20;99.90;;;;;;5108891;27;20039;-79
2023/04/14 19:00:28;;;;;;;5.03;2.05;;;11.20;99.90;;;;;;5110690;27;20079;-79
2023/04/14 19:02:56;;;;;;;8.73;2.50;;;11.10;99.90;;;;;;5075524;27;20039;-79
2023/04/14 19:05:24;;;;;;;9.18;2.20;;;11.00;99.90;;;;;;5093335;27;20044;-80
2023/04/14 19:07:50;;;;;;;8.77;2.33;;;10.90;99.90;;;;;;5076627;27;20043;-80
2023/04/14 19:10:17;;;;;;;8.63;2.83;;;10.80;99.90;;;;;;5092459;27;20375;-79
2023/04/14 19:12:43;;;;;;;9.35;2.50;;;10.80;99.90;;;;;;5076931;27;20050;-79
2023/04/14 19:15:09;;;;;;;9.55;3.13;;;10.70;99.90;;;;;;5108022;27;20115;-79
2023/04/14 19:17:35;;;;;;;8.32;2.10;;;10.60;99.90;;;;;;5110587;27;20126;-79
2023/04/14 19:20:02;;;;;;;10.25;2.95;;;10.50;99.90;;;;;;5108836;27;20126;-78
2023/04/14 19:22:28;;;;;;;7.35;1.83;;;10.50;99.90;;;;;;5109806;27;20043;-79
2023/04/14 19:24:54;;;;;;;8.25;1.63;;;10.40;99.90;;;;;;5093230;27;20039;-78
2023/04/14 19:27:20;;;;;;;13.18;2.35;;;10.30;99.90;;;;;;5108723;27;20122;-79
2023/04/14 19:29:46;;;;;;;17.48;2.90;;;10.30;99.90;;;;;;5093068;28;20134;-79
2023/04/14 19:32:11;;;;;;;4.70;2.22;;;10.20;99.90;;;;;;5091555;28;20081;-79
2023/04/14 19:34:37;;;;;;;6.97;2.05;;;10.10;99.90;;;;;;5110114;28;20474;-79
2023/04/14 19:37:03;;;;;;;13.77;2.20;;;10.10;99.90;;;;;;5108295;28;20057;-79
2023/04/14 19:39:30;;;;;;;5.03;2.10;;;10.00;99.90;;;;;;5092955;28;20134;-79
2023/04/14 19:41:59;;;;;;;10.07;2.30;;;10.00;99.90;;;;;;5092055;28;20474;-79
2023/04/14 19:44:25;;;;;;;8.82;2.25;;;9.90;99.90;;;;;;5109114;28;20397;-79
2023/04/14 19:46:51;;;;;;;9.93;2.40;;;9.90;99.90;;;;;;5110338;28;20058;-79
2023/04/14 19:49:17;;;;;;;8.55;2.20;;;9.90;99.90;;;;;;5107757;28;20426;-80
2023/04/14 19:51:43;;;;;;;13.90;3.10;;;9.80;99.90;;;;;;5092948;28;20551;-80
2023/04/14 19:54:09;;;;;;;5.65;2.20;;;9.80;99.90;;;;;;5090949;28;20039;-81
2023/04/14 19:56:35;;;;;;;8.98;2.40;;;9.70;99.90;;;;;;5092700;28;20047;-78
2023/04/14 19:59:01;;;;;;;7.20;2.13;;;10.10;99.90;;;;;;5091769;28;20135;-79
2023/04/14 20:01:27;;;;;;;10.00;2.97;;;9.70;99.90;;;;;;5091827;28;20107;-78
2023/04/14 20:03:55;;;;;;;9.93;2.83;;;10.10;99.90;;;;;;5109669;28;20047;-79
2023/04/14 20:06:21;;;;;;;9.93;3.20;;;9.60;99.90;;;;;;5074822;28;20130;-78
2023/04/14 20:08:48;;;;;;;13.13;5.30;;;9.50;99.90;;;;;;5093480;28;20146;-78
2023/04/14 20:11:16;;;;;;;9.13;2.65;;;9.50;99.90;;;;;;5108214;28;20123;-78
2023/04/14 20:13:42;;;;;;;6.55;2.58;;;9.50;99.90;;;;;;5109555;28;20035;-78
2023/04/14 20:16:09;;;;;;;10.73;2.50;;;9.40;99.90;;;;;;5091759;28;20220;-78
2023/04/14 20:18:34;;;;;;;7.85;2.50;;;9.40;99.90;;;;;;5091537;28;20054;-79